createdAt,value
2022-08-28T00:00:08.360Z,68.42
2022-08-28T00:02:36.056Z,68.72
2022-08-28T00:05:05.100Z,69.12
2022-08-28T00:07:32.804Z,68.30
2022-08-28T00:10:00.504Z,68.30
2022-08-28T00:12:29.507Z,67.81
2022-08-28T00:14:57.142Z,68.16
2022-08-28T00:17:25.236Z,67.81
2022-08-28T00:19:52.873Z,67.99
2022-08-28T00:22:20.671Z,67.68
2022-08-28T00:24:48.434Z,67.79
2022-08-28T00:27:33.505Z,68.30
2022-08-28T00:30:02.547Z,67.70
2022-08-28T00:32:30.181Z,68.90
2022-08-28T00:34:57.889Z,67.52
2022-08-28T00:37:25.506Z,67.39
2022-08-28T00:39:53.831Z,67.33
2022-08-28T00:42:21.657Z,67.19
2022-08-28T00:44:49.307Z,67.93
2022-08-28T00:47:18.337Z,67.42
2022-08-28T00:49:48.177Z,67.81
2022-08-28T00:52:16.089Z,67.50
2022-08-28T00:54:58.487Z,67.69
2022-08-28T00:57:28.888Z,67.77
2022-08-28T00:59:57.321Z,66.95
2022-08-28T01:02:27.526Z,67.44
2022-08-28T01:04:55.816Z,67.65
2022-08-28T01:07:23.919Z,67.26
2022-08-28T01:09:52.926Z,67.96
2022-08-28T01:12:22.284Z,67.70
2022-08-28T01:14:51.489Z,67.86
2022-08-28T01:17:20.788Z,67.51
2022-08-28T01:19:56.367Z,67.54
2022-08-28T01:22:27.067Z,68.35
2022-08-28T01:24:58.130Z,67.86
2022-08-28T01:27:25.806Z,68.11
2022-08-28T01:29:53.621Z,68.67
2022-08-28T01:32:29.636Z,68.13
2022-08-28T01:34:57.316Z,68.24
2022-08-28T01:37:25.020Z,68.15
2022-08-28T01:39:52.772Z,69.10
2022-08-28T01:42:21.893Z,68.26
2022-08-28T01:44:50.187Z,68.85
2022-08-28T01:47:17.932Z,69.74
2022-08-28T01:49:45.615Z,69.01
2022-08-28T01:52:13.327Z,69.02
2022-08-28T01:54:42.228Z,69.49
2022-08-28T01:57:10.106Z,68.68
2022-08-28T01:59:39.125Z,68.64
2022-08-28T02:02:10.637Z,69.23
2022-08-28T02:04:38.448Z,69.07
2022-08-28T02:07:06.142Z,68.86
2022-08-28T02:09:33.824Z,69.35
2022-08-28T02:12:01.480Z,69.29
2022-08-28T02:14:30.198Z,70.01
2022-08-28T02:16:59.207Z,69.19
2022-08-28T02:19:26.901Z,70.89
2022-08-28T02:21:54.559Z,69.88
2022-08-28T02:24:22.249Z,69.72
2022-08-28T02:26:49.871Z,69.82
2022-08-28T02:29:18.625Z,70.43
2022-08-28T02:31:46.965Z,70.60
2022-08-28T02:34:15.959Z,70.49
2022-08-28T02:36:43.662Z,70.26
2022-08-28T02:39:11.710Z,71.02
2022-08-28T02:41:39.359Z,70.95
2022-08-28T02:44:07.114Z,71.15
2022-08-28T02:46:35.015Z,71.34
2022-08-28T02:49:02.716Z,70.83
2022-08-28T02:51:34.714Z,71.57
2022-08-28T02:54:02.906Z,71.20
2022-08-28T02:56:31.002Z,71.30
2022-08-28T02:58:58.796Z,71.28
2022-08-28T03:01:26.542Z,71.29
2022-08-28T03:03:54.268Z,71.01
2022-08-28T03:06:23.040Z,70.84
2022-08-28T03:08:52.046Z,71.11
2022-08-28T03:11:19.868Z,71.44
2022-08-28T03:13:47.682Z,71.80
2022-08-28T03:16:15.395Z,71.11
2022-08-28T03:18:43.180Z,71.65
2022-08-28T03:21:11.446Z,71.19
2022-08-28T03:23:39.215Z,71.19
2022-08-28T03:26:09.884Z,71.85
2022-08-28T03:28:39.619Z,71.28
2022-08-28T03:31:07.818Z,71.50
2022-08-28T03:33:35.811Z,71.56
2022-08-28T03:36:04.809Z,71.39
2022-08-28T03:38:33.768Z,71.63
2022-08-28T03:41:02.264Z,71.49
2022-08-28T03:43:31.471Z,72.30
2022-08-28T03:46:00.259Z,71.59
2022-08-28T03:48:29.186Z,71.32
2022-08-28T03:50:57.019Z,71.37
2022-08-28T03:53:25.754Z,71.46
2022-08-28T03:55:53.611Z,71.65
2022-08-28T03:58:21.269Z,71.59
2022-08-28T04:00:51.063Z,71.52
2022-08-28T04:03:18.761Z,71.54
2022-08-28T04:05:47.059Z,71.70
2022-08-28T04:08:16.553Z,71.56
2022-08-28T04:10:44.992Z,71.54
2022-08-28T04:13:13.682Z,71.72
2022-08-28T04:15:41.763Z,72.16
2022-08-28T04:18:11.422Z,72.27
2022-08-28T04:20:39.355Z,72.35
2022-08-28T04:23:09.841Z,71.87
2022-08-28T04:25:40.563Z,71.94
2022-08-28T04:28:08.195Z,72.17
2022-08-28T04:30:36.441Z,72.01
2022-08-28T04:33:06.072Z,72.42
2022-08-28T04:35:35.076Z,72.40
2022-08-28T04:38:05.560Z,72.79
2022-08-28T04:40:33.526Z,72.37
2022-08-28T04:43:01.207Z,72.36
2022-08-28T04:45:29.449Z,72.54
2022-08-28T04:47:58.091Z,72.61
2022-08-28T04:50:27.824Z,72.85
2022-08-28T04:52:56.842Z,72.81
2022-08-28T04:55:24.520Z,73.09
2022-08-28T04:58:12.692Z,72.87
2022-08-28T05:00:40.937Z,72.62
2022-08-28T05:03:08.652Z,73.08
2022-08-28T05:05:41.521Z,72.86
2022-08-28T05:08:10.543Z,72.82
2022-08-28T05:10:39.889Z,72.73
2022-08-28T05:13:08.391Z,72.62
2022-08-28T05:15:38.604Z,72.46
2022-08-28T05:18:06.293Z,72.45
2022-08-28T05:20:36.535Z,72.39
2022-08-28T05:23:04.272Z,72.59
2022-08-28T05:25:35.515Z,72.91
2022-08-28T05:28:03.381Z,72.93
2022-08-28T05:30:31.026Z,72.49
2022-08-28T05:32:59.177Z,72.60
2022-08-28T05:35:26.904Z,72.67
2022-08-28T05:37:54.898Z,73.16
2022-08-28T05:40:23.225Z,73.78
2022-08-28T05:42:52.477Z,73.01
2022-08-28T05:45:22.462Z,72.71
2022-08-28T05:47:52.002Z,72.73
2022-08-28T05:50:20.111Z,72.54
2022-08-28T05:52:47.755Z,72.39
2022-08-28T05:55:15.507Z,72.46
2022-08-28T05:57:43.257Z,72.36
2022-08-28T06:00:13.694Z,72.95
2022-08-28T06:02:41.878Z,72.30
2022-08-28T06:05:13.220Z,72.06
2022-08-28T06:07:41.104Z,72.31
2022-08-28T06:10:10.759Z,71.92
2022-08-28T06:12:38.560Z,72.03
2022-08-28T06:15:07.478Z,71.72
2022-08-28T06:17:37.885Z,71.34
2022-08-28T06:20:06.092Z,71.74
2022-08-28T06:22:34.042Z,71.35
2022-08-28T06:25:03.776Z,71.53
2022-08-28T06:27:34.155Z,70.98
2022-08-28T06:30:03.841Z,70.94
2022-08-28T06:32:31.569Z,70.59
2022-08-28T06:35:00.598Z,70.32
2022-08-28T06:37:28.177Z,70.30
2022-08-28T06:39:55.851Z,69.09
2022-08-28T06:42:24.086Z,69.17
2022-08-28T06:44:51.760Z,69.02
2022-08-28T06:47:19.435Z,68.74
2022-08-28T06:49:47.085Z,67.23
2022-08-28T06:52:16.147Z,63.04
2022-08-28T06:54:55.277Z,63.33
2022-08-28T06:57:25.746Z,63.24
2022-08-28T06:59:56.273Z,63.81
2022-08-28T07:02:24.017Z,63.05
2022-08-28T07:04:56.269Z,63.54
2022-08-28T07:07:32.400Z,62.76
2022-08-28T07:10:00.514Z,61.96
2022-08-28T07:12:28.160Z,59.80
2022-08-28T07:14:55.790Z,57.10
2022-08-28T07:17:23.450Z,57.58
2022-08-28T07:19:51.472Z,56.92
2022-08-28T07:22:19.160Z,57.92
2022-08-28T07:24:48.420Z,58.05
2022-08-28T07:27:18.997Z,56.39
2022-08-28T07:29:46.903Z,57.24
2022-08-28T07:32:15.776Z,57.39
2022-08-28T07:34:43.416Z,58.24
2022-08-28T07:37:15.124Z,58.12
2022-08-28T07:39:43.081Z,57.24
2022-08-28T07:42:35.539Z,56.01
2022-08-28T07:45:02.831Z,56.24
2022-08-28T07:47:31.800Z,56.27
2022-08-28T07:50:00.241Z,55.52
2022-08-28T07:52:29.372Z,55.08
2022-08-28T07:54:57.377Z,53.63
2022-08-28T07:57:27.115Z,50.75
2022-08-28T07:59:54.790Z,49.51
2022-08-28T08:02:22.433Z,48.15
2022-08-28T08:04:50.059Z,46.40
2022-08-28T08:07:18.084Z,43.61
2022-08-28T08:09:46.458Z,43.10
2022-08-28T08:12:14.704Z,41.68
2022-08-28T08:14:44.309Z,39.33
2022-08-28T08:17:12.066Z,41.01
2022-08-28T08:19:39.755Z,41.58
2022-08-28T08:22:07.576Z,40.55
2022-08-28T08:24:35.325Z,40.07
2022-08-28T08:27:03.506Z,41.84
2022-08-28T08:29:32.330Z,43.52
2022-08-28T08:32:05.398Z,40.61
2022-08-28T08:34:33.981Z,41.48
2022-08-28T08:37:01.632Z,40.66
2022-08-28T08:39:29.487Z,42.16
2022-08-28T08:42:00.803Z,46.14
2022-08-28T08:44:33.658Z,43.65
2022-08-28T08:47:13.785Z,44.86
2022-08-28T08:49:44.617Z,43.23
2022-08-28T08:52:22.609Z,40.88
2022-08-28T08:54:59.578Z,39.97
2022-08-28T08:57:28.182Z,39.79
2022-08-28T08:59:55.812Z,42.61
2022-08-28T09:02:31.191Z,45.54
2022-08-28T09:05:02.768Z,42.91
2022-08-28T09:07:33.548Z,45.09
2022-08-28T09:10:01.223Z,45.83
2022-08-28T09:12:29.730Z,46.69
2022-08-28T09:15:04.943Z,46.83
2022-08-28T09:17:35.534Z,45.85
2022-08-28T09:20:03.370Z,47.23
2022-08-28T09:22:31.064Z,44.75
2022-08-28T09:24:59.191Z,44.46
2022-08-28T09:27:27.867Z,44.42
2022-08-28T09:29:57.474Z,41.47
2022-08-28T09:32:26.995Z,41.05
2022-08-28T09:35:06.183Z,40.44
2022-08-28T09:37:35.298Z,40.60
2022-08-28T09:40:16.571Z,41.87
2022-08-28T09:43:23.619Z,39.50
2022-08-28T09:45:57.595Z,40.47
2022-08-28T09:48:26.000Z,41.08
2022-08-28T09:50:59.041Z,39.40
2022-08-28T09:53:28.250Z,39.52
2022-08-28T09:55:59.418Z,39.42
2022-08-28T09:58:30.939Z,41.13
2022-08-28T10:01:03.882Z,42.07
2022-08-28T10:03:34.330Z,44.18
2022-08-28T10:06:08.282Z,44.81
2022-08-28T10:08:48.675Z,42.92
2022-08-28T10:11:19.059Z,41.13
2022-08-28T10:13:49.416Z,41.39
2022-08-28T10:16:21.597Z,42.89
2022-08-28T10:18:54.052Z,42.74
2022-08-28T10:21:28.834Z,43.07
2022-08-28T10:24:10.177Z,40.26
2022-08-28T10:26:40.664Z,42.26
2022-08-28T10:29:18.568Z,41.23
2022-08-28T10:31:51.243Z,41.45
2022-08-28T10:34:33.035Z,40.34
2022-08-28T10:37:04.720Z,40.89
2022-08-28T10:39:36.999Z,39.24
2022-08-28T10:42:05.802Z,40.90
2022-08-28T10:44:35.876Z,39.01
2022-08-28T10:47:04.516Z,39.80
2022-08-28T10:49:33.833Z,39.85
2022-08-28T10:52:04.916Z,38.35
2022-08-28T10:54:35.578Z,39.41
2022-08-28T10:57:06.598Z,38.89
2022-08-28T10:59:41.906Z,41.00
2022-08-28T11:02:13.612Z,38.45
2022-08-28T11:04:41.421Z,37.75
2022-08-28T11:07:12.164Z,39.56
2022-08-28T11:09:48.008Z,39.36
2022-08-28T11:12:30.538Z,39.96
2022-08-28T11:14:58.202Z,39.02
2022-08-28T11:17:38.464Z,37.94
2022-08-28T11:20:10.764Z,38.52
2022-08-28T11:22:41.618Z,37.83
2022-08-28T11:25:14.276Z,37.83
2022-08-28T11:28:01.967Z,40.46
2022-08-28T11:30:36.277Z,39.60
2022-08-28T11:33:08.006Z,36.77
2022-08-28T11:35:56.651Z,37.09
2022-08-28T11:38:42.842Z,37.95
2022-08-28T11:41:17.471Z,36.80
2022-08-28T11:43:46.476Z,39.01
2022-08-28T11:46:28.992Z,40.70
2022-08-28T11:48:57.168Z,40.58
2022-08-28T11:51:46.020Z,39.21
2022-08-28T11:54:21.459Z,37.14
2022-08-28T11:56:54.650Z,36.20
2022-08-28T11:59:37.565Z,39.40
2022-08-28T12:02:24.001Z,37.96
2022-08-28T12:04:51.773Z,37.40
2022-08-28T12:07:22.047Z,38.10
2022-08-28T12:09:50.267Z,37.03
2022-08-28T12:12:36.482Z,35.76
2022-08-28T12:15:12.338Z,36.60
2022-08-28T12:17:57.781Z,37.65
2022-08-28T12:20:40.575Z,39.28
2022-08-28T12:23:27.044Z,39.52
2022-08-28T12:26:00.520Z,41.52
2022-08-28T12:28:29.264Z,40.15
2022-08-28T12:31:00.736Z,38.57
2022-08-28T12:33:33.263Z,39.43
2022-08-28T12:36:02.269Z,38.69
2022-08-28T12:38:31.399Z,38.09
2022-08-28T12:40:59.174Z,38.14
2022-08-28T12:43:32.894Z,37.46
2022-08-28T12:46:03.372Z,37.89
2022-08-28T12:48:32.538Z,37.78
2022-08-28T12:51:03.125Z,38.97
2022-08-28T12:53:38.400Z,38.64
2022-08-28T12:56:06.194Z,40.15
2022-08-28T12:58:35.121Z,38.82
2022-08-28T13:01:07.145Z,38.60
2022-08-28T13:03:35.017Z,38.50
2022-08-28T13:06:04.972Z,40.65
2022-08-28T13:08:33.999Z,40.19
2022-08-28T13:11:01.801Z,41.53
2022-08-28T13:13:33.448Z,41.59
2022-08-28T13:16:01.969Z,42.06
2022-08-28T13:18:44.498Z,41.15
2022-08-28T13:21:32.485Z,41.40
2022-08-28T13:24:01.537Z,42.85
2022-08-28T13:26:31.034Z,42.71
2022-08-28T13:29:01.486Z,44.86
2022-08-28T13:31:31.372Z,43.35
2022-08-28T13:34:09.381Z,42.75
2022-08-28T13:36:40.556Z,43.36
2022-08-28T13:39:08.360Z,42.63
2022-08-28T13:41:36.103Z,41.76
2022-08-28T13:44:04.203Z,42.66
2022-08-28T13:46:31.914Z,41.77
2022-08-28T13:48:59.642Z,41.01
2022-08-28T13:51:28.977Z,42.71
2022-08-28T13:53:58.081Z,42.59
2022-08-28T13:56:28.480Z,43.13
2022-08-28T13:58:57.405Z,42.59
2022-08-28T14:01:47.103Z,41.87
2022-08-28T14:04:14.025Z,42.80
2022-08-28T14:06:44.214Z,43.47
2022-08-28T14:09:15.216Z,43.89
2022-08-28T14:11:45.598Z,42.90
2022-08-28T14:14:13.263Z,43.39
2022-08-28T14:16:41.241Z,43.49
2022-08-28T14:19:09.112Z,43.60
2022-08-28T14:21:37.768Z,44.37
2022-08-28T14:24:07.708Z,44.16
2022-08-28T14:26:35.715Z,45.00
2022-08-28T14:29:04.274Z,44.26
2022-08-28T14:31:32.061Z,42.78
2022-08-28T14:33:59.815Z,44.18
2022-08-28T14:36:29.885Z,43.64
2022-08-28T14:39:01.744Z,44.09
2022-08-28T14:41:33.364Z,45.14
2022-08-28T14:44:01.164Z,44.71
2022-08-28T14:46:30.459Z,45.00
2022-08-28T14:48:58.859Z,45.11
2022-08-28T14:51:26.861Z,44.82
2022-08-28T14:53:54.856Z,44.59
2022-08-28T14:56:23.351Z,45.50
2022-08-28T14:58:52.374Z,44.98
2022-08-28T15:01:24.330Z,44.47
2022-08-28T15:03:54.564Z,44.49
2022-08-28T15:06:22.246Z,44.20
2022-08-28T15:08:49.902Z,44.69
2022-08-28T15:11:18.884Z,45.00
2022-08-28T15:13:47.411Z,45.12
2022-08-28T15:16:17.336Z,45.08
2022-08-28T15:18:45.982Z,45.48
2022-08-28T15:21:17.911Z,45.41
2022-08-28T15:23:45.781Z,45.60
2022-08-28T15:26:15.510Z,44.60
2022-08-28T15:28:43.433Z,44.92
2022-08-28T15:31:11.145Z,44.40
2022-08-28T15:33:43.381Z,44.10
2022-08-28T15:36:12.947Z,44.67
2022-08-28T15:38:54.507Z,44.69
2022-08-28T15:41:27.302Z,45.16
2022-08-28T15:43:55.873Z,45.24
2022-08-28T15:46:23.845Z,44.59
2022-08-28T15:48:54.512Z,45.16
2022-08-28T15:51:25.879Z,46.05
2022-08-28T15:53:53.867Z,46.44
2022-08-28T15:56:21.547Z,46.04
2022-08-28T16:10:53.551Z,47.07
2022-08-28T16:13:22.315Z,46.17
2022-08-28T16:15:50.217Z,46.19
2022-08-28T16:18:18.320Z,46.29
2022-08-28T16:20:46.299Z,46.07
2022-08-28T16:23:14.572Z,46.36
2022-08-28T16:25:42.760Z,46.36
2022-08-28T16:28:12.028Z,47.81
2022-08-28T16:30:43.885Z,46.72
2022-08-28T16:33:12.210Z,46.65
2022-08-28T16:35:49.248Z,46.92
2022-08-28T16:38:18.961Z,47.15
2022-08-28T16:40:47.801Z,47.91
2022-08-28T16:43:17.273Z,46.69
2022-08-28T16:45:46.180Z,46.80
2022-08-28T16:48:15.684Z,47.03
2022-08-28T16:50:45.199Z,47.48
2022-08-28T16:53:13.133Z,47.56
2022-08-28T16:55:43.267Z,48.03
2022-08-28T16:58:14.948Z,48.17
2022-08-28T17:00:54.747Z,47.61
2022-08-28T17:03:26.363Z,47.40
2022-08-28T17:05:56.694Z,48.91
2022-08-28T17:08:24.560Z,48.42
2022-08-28T17:10:52.451Z,48.68
2022-08-28T17:13:20.377Z,48.10
2022-08-28T17:15:49.607Z,48.41
2022-08-28T17:18:17.436Z,48.38
2022-08-28T17:21:02.543Z,49.38
2022-08-28T17:23:30.392Z,48.50
2022-08-28T17:25:58.246Z,48.70
2022-08-28T17:28:26.072Z,48.65
2022-08-28T17:30:55.348Z,48.66
2022-08-28T17:33:23.304Z,48.53
2022-08-28T17:35:52.049Z,49.50
2022-08-28T17:38:20.067Z,49.62
2022-08-28T17:40:47.911Z,49.76
2022-08-28T17:43:15.790Z,49.89
2022-08-28T17:45:43.829Z,49.59
2022-08-28T17:48:13.217Z,50.13
2022-08-28T17:50:41.120Z,50.77
2022-08-28T17:53:08.944Z,50.88
2022-08-28T17:55:37.085Z,50.97
2022-08-28T17:58:05.164Z,51.88
2022-08-28T18:00:33.455Z,52.04
2022-08-28T18:03:01.478Z,50.90
2022-08-28T18:05:30.838Z,51.54
2022-08-28T18:07:59.002Z,51.84
2022-08-28T18:10:27.672Z,51.70
2022-08-28T18:12:55.547Z,52.75
2022-08-28T18:15:23.549Z,52.35
2022-08-28T18:17:51.557Z,52.92
2022-08-28T18:20:20.177Z,53.59
2022-08-28T18:22:49.683Z,54.04
2022-08-28T18:25:31.999Z,53.69
2022-08-28T18:27:59.881Z,54.54
2022-08-28T18:30:27.847Z,54.93
2022-08-28T18:32:56.617Z,53.78
2022-08-28T18:35:32.109Z,54.17
2022-08-28T18:38:02.506Z,54.24
2022-08-28T18:40:31.253Z,55.02
2022-08-28T18:42:59.346Z,54.92
2022-08-28T18:45:27.717Z,54.54
2022-08-28T18:47:55.847Z,55.43
2022-08-28T18:50:25.946Z,55.23
2022-08-28T18:52:54.751Z,55.45
2022-08-28T18:55:25.958Z,56.31
2022-08-28T18:57:53.913Z,56.86
2022-08-28T19:00:23.473Z,56.36
2022-08-28T19:02:51.599Z,55.73
2022-08-28T19:05:20.067Z,55.68
2022-08-28T19:07:48.404Z,55.69
2022-08-28T19:10:32.126Z,56.51
2022-08-28T19:13:03.261Z,56.36
2022-08-28T19:15:33.790Z,56.25
2022-08-28T19:18:02.664Z,56.38
2022-08-28T19:20:31.476Z,56.51
2022-08-28T19:22:59.764Z,57.21
2022-08-28T19:25:30.343Z,57.11
2022-08-28T19:27:59.792Z,57.84
2022-08-28T19:30:31.199Z,58.02
2022-08-28T19:33:00.060Z,58.09
2022-08-28T19:35:28.038Z,57.88
2022-08-28T19:37:56.016Z,57.47
2022-08-28T19:40:24.257Z,57.73
2022-08-28T19:42:52.607Z,57.41
2022-08-28T19:45:21.377Z,57.51
2022-08-28T19:47:50.682Z,57.37
2022-08-28T19:50:19.430Z,57.08
2022-08-28T19:52:47.608Z,58.07
2022-08-28T19:55:18.297Z,57.70
2022-08-28T19:57:48.402Z,57.48
2022-08-28T20:00:19.091Z,57.87
2022-08-28T20:02:48.167Z,58.23
2022-08-28T20:05:17.335Z,57.90
2022-08-28T20:07:45.493Z,58.28
2022-08-28T20:10:14.364Z,58.06
2022-08-28T20:12:48.014Z,58.90
2022-08-28T20:15:19.413Z,59.27
2022-08-28T20:17:49.940Z,58.78
2022-08-28T20:20:23.762Z,59.40
2022-08-28T20:22:54.961Z,58.58
2022-08-28T20:25:24.260Z,59.06
2022-08-28T20:27:52.167Z,58.75
2022-08-28T20:30:20.085Z,59.23
2022-08-28T20:32:48.220Z,59.65
2022-08-28T20:35:16.298Z,59.49
2022-08-28T20:37:45.921Z,59.74
2022-08-28T20:40:17.010Z,59.83
2022-08-28T20:42:45.291Z,58.10
2022-08-28T20:45:14.152Z,60.08
2022-08-28T20:47:42.210Z,59.96
2022-08-28T20:50:11.185Z,59.34
2022-08-28T20:52:39.569Z,60.54
2022-08-28T20:55:10.516Z,59.62
2022-08-28T20:57:38.542Z,59.70
2022-08-28T21:00:09.046Z,59.82
2022-08-28T21:02:38.147Z,59.47
2022-08-28T21:05:07.028Z,61.21
2022-08-28T21:07:35.260Z,60.84
2022-08-28T21:10:05.552Z,60.62
2022-08-28T21:12:37.004Z,60.96
2022-08-28T21:15:06.030Z,60.78
2022-08-28T21:17:33.926Z,60.95
2022-08-28T21:20:04.230Z,61.45
2022-08-28T21:22:34.569Z,60.60
2022-08-28T21:25:04.102Z,61.10
2022-08-28T21:27:32.012Z,60.61
2022-08-28T21:30:02.266Z,60.82
2022-08-28T21:32:32.604Z,60.31
2022-08-28T21:35:00.972Z,61.43
2022-08-28T21:37:29.453Z,60.42
2022-08-28T21:39:59.546Z,60.30
2022-08-28T21:42:28.246Z,61.79
2022-08-28T21:44:56.223Z,60.56
2022-08-28T21:47:26.270Z,62.39
2022-08-28T21:49:57.160Z,60.60
2022-08-28T21:52:27.733Z,62.55
2022-08-28T21:54:58.457Z,61.88
2022-08-28T21:57:26.985Z,61.80
2022-08-28T21:59:55.008Z,61.79
2022-08-28T22:02:22.904Z,61.94
2022-08-28T22:04:52.416Z,63.26
2022-08-28T22:07:21.164Z,61.99
2022-08-28T22:09:49.353Z,62.98
2022-08-28T22:12:17.377Z,63.20
2022-08-28T22:14:45.246Z,63.38
2022-08-28T22:17:15.194Z,62.28
2022-08-28T22:19:43.275Z,63.16
2022-08-28T22:22:33.949Z,62.49
2022-08-28T22:25:01.860Z,62.82
2022-08-28T22:27:31.839Z,62.45
2022-08-28T22:29:59.794Z,63.80
2022-08-28T22:32:28.013Z,63.39
2022-08-28T22:34:56.185Z,62.16
2022-08-28T22:37:25.715Z,62.59
2022-08-28T22:39:53.756Z,62.40
2022-08-28T22:42:21.730Z,61.97
2022-08-28T22:44:49.690Z,62.69
2022-08-28T22:47:18.818Z,62.35
2022-08-28T22:49:46.995Z,63.39
2022-08-28T22:52:15.335Z,62.45
2022-08-28T22:54:44.546Z,64.69
2022-08-28T22:57:12.275Z,63.06
2022-08-28T22:59:40.133Z,63.51
2022-08-28T23:02:08.297Z,64.05
2022-08-28T23:04:36.116Z,64.23
2022-08-28T23:07:04.034Z,63.97
2022-08-28T23:09:32.022Z,64.01
2022-08-28T23:12:05.703Z,64.38
2022-08-28T23:14:33.574Z,63.99
2022-08-28T23:17:01.432Z,64.51
2022-08-28T23:19:30.373Z,64.59
2022-08-28T23:21:59.707Z,64.95
2022-08-28T23:24:27.568Z,64.74
2022-08-28T23:26:55.463Z,65.73
2022-08-28T23:29:24.897Z,65.58
2022-08-28T23:31:52.808Z,65.05
2022-08-28T23:34:20.915Z,65.31
2022-08-28T23:36:48.697Z,65.72
2022-08-28T23:39:16.824Z,66.09
2022-08-28T23:41:44.638Z,67.42
2022-08-28T23:44:12.611Z,66.14
2022-08-28T23:46:42.361Z,66.63
2022-08-28T23:49:10.868Z,67.00
2022-08-28T23:51:38.956Z,66.87
2022-08-28T23:54:07.205Z,66.82
2022-08-28T23:56:35.553Z,66.33
2022-08-28T23:59:03.760Z,65.93
